Time;durP1;ratioP1;P1;durP2;ratioP2;P2;SDS_P1;SDS_P2;PMS_P1;PMS_P2;Temp;Humidity;BMP_temperature;BMP_pressure;BME280_temperature;BME280_humidity;BME280_pressure;Samples;Min_cycle;Max_cycle;Signal;HPM_P1;HPM_P2
2022/04/16 00:00:13;;;;;;;1.00;0.80;;;6.80;1.40;;;7.86;100.00;96227.48;646646;216;31552;-75
2022/04/16 00:02:56;;;;;;;0.70;0.70;;;6.70;1.40;;;7.78;100.00;96229.33;645560;212;31502;-73
2022/04/16 00:05:40;;;;;;;1.43;1.10;;;6.70;1.40;;;7.72;100.00;96228.78;623246;226;31969;-74
2022/04/16 00:08:23;;;;;;;1.25;1.00;;;6.70;1.40;;;7.65;100.00;96226.39;647679;215;31581;-73
2022/04/16 00:11:06;;;;;;;0.90;0.80;;;6.70;1.40;;;7.68;100.00;96228.23;620004;226;32379;-73
2022/04/16 00:13:50;;;;;;;0.77;0.60;;;6.80;1.40;;;7.63;100.00;96229.30;645952;216;31515;-74
2022/04/16 00:16:28;;;;;;;1.90;1.30;;;6.70;1.40;;;7.71;100.00;96229.42;650496;212;31776;-74
2022/04/16 00:19:11;;;;;;;0.70;0.60;;;6.70;1.40;;;7.77;100.00;96224.36;647355;216;41915;-73
2022/04/16 00:21:52;;;;;;;1.37;1.27;;;6.60;1.40;;;7.72;100.00;96226.62;649168;216;31680;-74
2022/04/16 00:24:34;;;;;;;1.33;1.20;;;6.60;1.40;;;7.65;100.00;96222.61;652048;212;31567;-73
2022/04/16 00:27:19;;;;;;;0.80;0.70;;;6.60;1.40;;;7.54;100.00;96218.78;646508;216;31502;-75
2022/04/16 00:30:01;;;;;;;2.20;1.03;;;6.60;1.40;;;7.50;100.00;96214.08;622034;222;32020;-73
2022/04/16 00:32:45;;;;;;;0.67;0.50;;;6.50;1.40;;;7.70;100.00;96220.30;646111;213;32411;-74
2022/04/16 00:35:57;;;;;;;0.90;0.80;;;6.50;1.40;;;7.69;100.00;96218.79;648597;216;31538;-74
2022/04/16 00:38:49;;;;;;;2.40;1.40;;;6.40;1.40;;;7.72;100.00;96214.20;651829;216;31512;-74
2022/04/16 00:41:31;;;;;;;2.20;1.20;;;6.40;1.40;;;7.56;100.00;96211.55;648247;212;31528;-74
2022/04/16 00:44:19;;;;;;;1.00;0.50;;;6.40;1.40;;;7.48;100.00;96213.21;647859;216;31895;-73
2022/04/16 00:46:58;;;;;;;2.40;1.00;;;6.30;1.40;;;7.43;100.00;96206.31;651092;212;32050;-73
2022/04/16 00:49:44;;;;;;;1.35;0.50;;;6.30;1.40;;;7.31;100.00;96209.73;645719;212;31615;-73
2022/04/16 00:52:25;;;;;;;1.10;0.90;;;6.30;1.40;;;7.15;100.00;96208.20;649197;212;42226;-75
2022/04/16 00:55:08;;;;;;;0.63;0.60;;;6.20;1.40;;;7.13;100.00;96209.16;622584;222;32338;-73
2022/04/16 00:57:49;;;;;;;1.80;0.90;;;6.20;1.40;;;7.12;100.00;96208.23;648689;216;31663;-75
2022/04/16 01:00:31;;;;;;;2.30;0.70;;;6.20;1.40;;;7.19;100.00;96210.53;621040;226;31821;-75
2022/04/16 01:03:13;;;;;;;0.70;0.40;;;6.10;1.40;;;7.33;100.00;96206.45;650074;212;32087;-75
2022/04/16 01:05:58;;;;;;;0.80;0.70;;;6.10;1.40;;;7.43;100.00;96204.86;618295;228;31874;-75
2022/04/16 01:08:44;;;;;;;0.60;0.50;;;6.10;1.40;;;7.29;100.00;96198.99;651587;216;34444;-75
2022/04/16 01:11:32;;;;;;;0.65;0.40;;;6.10;1.40;;;7.36;100.00;96202.73;647492;212;31736;-74
2022/04/16 01:14:17;;;;;;;1.87;1.35;;;6.10;1.40;;;7.31;100.00;96200.51;649250;216;31522;-74
2022/04/16 01:16:57;;;;;;;1.60;1.50;;;6.10;1.40;;;7.09;100.00;96196.84;646017;216;31566;-73
2022/04/16 01:19:38;;;;;;;0.80;0.50;;;6.00;1.40;;;6.92;100.00;96198.96;621148;222;31844;-74
2022/04/16 01:22:20;;;;;;;0.65;0.65;;;5.90;1.40;;;6.87;100.00;96198.69;647966;212;31539;-75
2022/04/16 01:25:02;;;;;;;0.80;0.40;;;5.90;1.40;;;6.91;100.00;96200.20;647902;216;31555;-74
2022/04/16 01:27:46;;;;;;;2.55;1.30;;;5.80;1.40;;;7.05;100.00;96204.73;646424;212;42708;-74
2022/04/16 01:30:34;;;;;;;0.88;0.50;;;5.80;1.40;;;6.87;100.00;96199.17;644966;212;32123;-74
2022/04/16 01:35:53;;;;;;;0.70;0.60;;;5.70;1.40;;;6.68;100.00;96193.56;647805;216;31564;-73
2022/04/16 01:38:39;;;;;;;1.20;0.70;;;5.70;1.40;;;6.65;100.00;96199.36;646849;216;31831;-74
2022/04/16 01:41:23;;;;;;;2.53;0.90;;;5.60;1.40;;;6.65;100.00;96201.57;649037;212;31556;-73
2022/04/16 01:44:06;;;;;;;0.62;0.60;;;5.60;1.40;;;6.77;100.00;96198.81;648910;216;31525;-74
2022/04/16 01:46:48;;;;;;;1.05;0.75;;;5.60;1.40;;;6.68;100.00;96196.14;620028;222;31822;-73
2022/04/16 01:49:33;;;;;;;1.00;0.50;;;5.50;1.40;;;6.64;100.00;96195.09;648147;212;31653;-74
2022/04/16 01:52:15;;;;;;;0.70;0.70;;;5.50;1.40;;;6.64;100.00;96195.16;646196;216;42136;-74
2022/04/16 01:54:57;;;;;;;0.90;0.60;;;5.50;1.40;;;6.62;100.00;96191.10;619527;226;31993;-74
2022/04/16 01:57:40;;;;;;;1.02;0.55;;;5.50;1.40;;;6.62;100.00;96190.08;650325;212;31458;-75
2022/04/16 02:00:23;;;;;;;0.55;0.45;;;5.50;1.40;;;6.66;100.00;96192.53;647082;216;42125;-75
2022/04/16 02:03:05;;;;;;;1.80;0.88;;;5.50;1.40;;;6.68;100.00;96190.70;652595;216;31503;-74
2022/04/16 02:05:46;;;;;;;1.00;0.55;;;5.60;1.40;;;6.65;100.00;96189.45;622251;222;31906;-75
2022/04/16 02:08:28;;;;;;;1.60;1.40;;;5.60;1.40;;;6.61;100.00;96193.09;636784;216;31678;-73
2022/04/16 02:11:10;;;;;;;0.70;0.65;;;5.60;1.40;;;6.60;100.00;96196.42;651807;212;31523;-75
2022/04/16 02:13:52;;;;;;;0.67;0.67;;;5.60;1.40;;;6.76;100.00;96198.58;649230;216;31553;-73
2022/04/16 02:16:33;;;;;;;0.80;0.60;;;5.60;1.40;;;6.74;100.00;96200.08;618657;226;31819;-74
2022/04/16 02:19:21;;;;;;;0.70;0.70;;;5.70;1.40;;;6.75;100.00;96196.10;646861;216;31518;-75
2022/04/16 02:22:10;;;;;;;1.40;0.90;;;5.80;1.40;;;6.87;100.00;96196.59;649639;216;42151;-74
2022/04/16 02:24:52;;;;;;;2.30;1.30;;;5.80;1.40;;;6.87;100.00;96192.28;616934;226;42460;-73
2022/04/16 02:27:34;;;;;;;2.60;1.20;;;5.80;1.40;;;6.83;100.00;96185.90;618671;222;31823;-73
2022/04/16 02:30:19;;;;;;;0.62;0.57;;;5.80;1.40;;;6.88;100.00;96184.34;647105;216;31588;-73
2022/04/16 02:33:01;;;;;;;0.63;0.60;;;5.80;1.40;;;6.87;100.00;96180.20;648594;212;31518;-73
2022/04/16 02:35:51;;;;;;;0.60;0.60;;;5.90;1.40;;;6.94;100.00;96181.13;649283;216;31544;-73
2022/04/16 02:38:33;;;;;;;0.80;0.80;;;5.90;1.40;;;6.98;100.00;96181.47;648019;216;31580;-73
2022/04/16 02:41:15;;;;;;;0.95;0.85;;;5.80;1.40;;;6.96;100.00;96180.00;646613;212;42269;-74
2022/04/16 02:43:58;;;;;;;1.02;0.90;;;5.80;1.40;;;6.85;100.00;96179.39;645194;212;42442;-75
2022/04/16 02:49:29;;;;;;;4.20;2.30;;;5.70;1.40;;;6.69;100.00;96177.45;647568;216;31500;-75
2022/04/16 02:52:11;;;;;;;1.05;0.62;;;5.60;1.40;;;6.65;100.00;96184.70;648941;212;31532;-74
2022/04/16 02:54:53;;;;;;;0.60;0.60;;;5.50;1.40;;;6.60;100.00;96184.03;649071;216;32066;-73
2022/04/16 02:57:35;;;;;;;1.20;0.85;;;5.40;1.40;;;6.61;100.00;96184.41;649450;212;31462;-74
2022/04/16 03:00:17;;;;;;;0.90;0.80;;;5.30;1.40;;;6.53;100.00;96186.91;619451;226;42657;-74
2022/04/16 03:02:58;;;;;;;2.50;0.70;;;5.20;1.40;;;6.50;100.00;96190.14;648661;212;31819;-74
2022/04/16 03:05:43;;;;;;;1.10;0.65;;;5.10;1.40;;;6.21;100.00;96192.35;646046;216;31544;-74
2022/04/16 03:08:25;;;;;;;2.30;0.70;;;4.90;1.40;;;6.10;100.00;96190.78;637998;212;32841;-73
2022/04/16 03:11:07;;;;;;;0.60;0.57;;;4.90;1.40;;;6.04;100.00;96190.15;646924;216;31844;-74
2022/04/16 03:13:52;;;;;;;1.30;0.90;;;4.80;1.40;;;5.93;100.00;96186.31;647591;212;32341;-74
2022/04/16 03:19:22;;;;;;;2.28;1.27;;;4.60;1.40;;;5.71;100.00;96184.73;624471;225;31837;-75
2022/04/16 03:22:04;;;;;;;0.80;0.50;;;4.60;1.40;;;5.57;100.00;96187.80;648360;212;31595;-74
2022/04/16 03:24:46;;;;;;;0.80;0.50;;;4.50;1.40;;;5.43;100.00;96193.91;649157;216;31631;-73
2022/04/16 03:27:34;;;;;;;1.17;0.73;;;4.30;1.40;;;5.50;100.00;96195.64;648203;212;31499;-74
2022/04/16 03:30:23;;;;;;;0.68;0.47;;;4.10;1.40;;;5.24;100.00;96193.68;650062;212;31583;-75
2022/04/16 03:35:51;;;;;;;1.00;0.50;;;3.80;1.40;;;4.88;100.00;96181.54;646842;216;31545;-73
2022/04/16 03:38:33;;;;;;;1.50;0.70;;;3.70;1.40;;;4.81;100.00;96179.61;647122;212;31505;-74
2022/04/16 03:41:15;;;;;;;1.60;1.50;;;3.70;1.40;;;4.73;100.00;96179.66;620864;226;31866;-73
2022/04/16 03:43:57;;;;;;;0.73;0.73;;;3.60;1.40;;;4.71;100.00;96183.03;647186;216;31484;-74
2022/04/16 03:46:38;;;;;;;0.60;0.40;;;3.60;1.40;;;4.74;100.00;96180.91;646998;212;31566;-74
2022/04/16 03:49:23;;;;;;;2.00;0.57;;;3.50;1.40;;;4.61;100.00;96182.76;650231;216;31486;-73
2022/04/16 03:52:05;;;;;;;1.30;1.20;;;3.40;1.40;;;4.58;100.00;96188.52;646582;212;31525;-75
2022/04/16 04:00:30;;;;;;;0.90;0.50;;;3.30;1.40;;;4.37;100.00;96198.20;646960;212;31475;-75
2022/04/16 04:03:12;;;;;;;1.02;0.93;;;3.20;1.40;;;4.38;100.00;96197.98;648307;216;31532;-74
2022/04/16 04:05:54;;;;;;;0.40;0.30;;;3.30;1.40;;;4.33;100.00;96199.91;648861;216;31536;-74
2022/04/16 04:08:36;;;;;;;2.00;0.50;;;3.30;1.40;;;4.32;100.00;96194.69;608210;226;32433;-73
2022/04/16 04:11:20;;;;;;;0.50;0.40;;;3.30;1.40;;;4.28;100.00;96195.87;646338;212;31514;-74
2022/04/16 04:14:03;;;;;;;1.30;0.80;;;3.20;1.40;;;4.12;100.00;96193.19;651796;216;31512;-73
2022/04/16 04:16:48;;;;;;;0.70;0.70;;;3.00;1.40;;;4.09;100.00;96198.69;649540;216;31730;-75
2022/04/16 04:19:32;;;;;;;0.60;0.60;;;2.80;1.40;;;3.92;100.00;96198.47;622126;222;32598;-75
2022/04/16 04:22:19;;;;;;;1.15;0.77;;;2.70;1.40;;;3.86;100.00;96197.66;644824;216;31525;-73
2022/04/16 04:25:07;;;;;;;0.80;0.70;;;2.70;1.40;;;3.88;100.00;96200.95;621715;222;32000;-75
2022/04/16 04:30:33;;;;;;;0.50;0.50;;;2.70;1.40;;;3.74;100.00;96209.20;648034;212;32136;-74
2022/04/16 04:35:53;;;;;;;1.20;0.50;;;2.80;1.40;;;3.82;100.00;96212.77;650197;216;31508;-75
2022/04/16 04:38:36;;;;;;;1.58;0.57;;;2.70;1.40;;;3.84;100.00;96210.45;647877;212;32209;-75
2022/04/16 04:41:20;;;;;;;0.80;0.73;;;2.70;1.40;;;3.78;100.00;96210.56;618611;226;32018;-74
2022/04/16 04:44:11;;;;;;;0.45;0.32;;;2.60;1.40;;;3.76;100.00;96212.78;618228;225;31904;-74
2022/04/16 04:46:59;;;;;;;0.50;0.45;;;2.70;1.40;;;3.85;100.00;96223.02;649331;216;31538;-73
2022/04/16 04:49:44;;;;;;;0.65;0.65;;;2.70;1.40;;;3.90;100.00;96220.34;648608;212;31520;-75
2022/04/16 04:52:29;;;;;;;1.90;1.00;;;2.80;1.40;;;4.00;100.00;96211.05;621346;226;31873;-74
2022/04/16 04:55:10;;;;;;;1.60;0.90;;;2.90;1.40;;;4.18;100.00;96209.64;645939;216;31474;-73
2022/04/16 04:57:54;;;;;;;1.10;1.10;;;3.10;1.40;;;4.29;100.00;96210.53;648529;216;31533;-73
2022/04/16 05:00:34;;;;;;;0.80;0.50;;;3.20;1.40;;;4.24;100.00;96211.66;648385;212;31546;-74
2022/04/16 05:03:15;;;;;;;1.60;0.80;;;3.10;1.40;;;4.21;100.00;96217.46;650546;216;31595;-73
2022/04/16 05:05:57;;;;;;;2.20;1.15;;;3.10;1.40;;;4.36;100.00;96214.28;649381;216;32052;-73
2022/04/16 05:08:39;;;;;;;1.20;1.00;;;3.30;1.40;;;4.58;100.00;96212.30;651540;212;31490;-73
2022/04/16 05:11:21;;;;;;;0.90;0.90;;;3.50;1.40;;;4.78;100.00;96217.01;620989;226;32034;-73
2022/04/16 05:14:04;;;;;;;0.95;0.85;;;3.70;1.40;;;4.94;100.00;96222.41;647769;216;31551;-75
2022/04/16 05:16:46;;;;;;;5.17;1.13;;;3.80;1.40;;;5.17;100.00;96220.02;653035;212;23466;-73
2022/04/16 05:19:29;;;;;;;1.00;1.00;;;4.10;1.40;;;5.51;100.00;96214.21;649233;216;31659;-73
2022/04/16 05:22:10;;;;;;;1.50;0.90;;;4.40;1.40;;;5.87;100.00;96220.31;620283;222;32331;-74
2022/04/16 05:24:52;;;;;;;0.70;0.60;;;4.70;1.40;;;6.07;100.00;96223.33;650740;216;31509;-73
2022/04/16 05:27:37;;;;;;;1.12;1.10;;;4.90;1.40;;;6.22;100.00;96235.27;625592;226;31966;-73
2022/04/16 05:30:25;;;;;;;1.40;0.80;;;5.00;1.40;;;6.44;100.00;96232.77;624218;222;32153;-73
2022/04/16 05:35:52;;;;;;;1.52;0.80;;;5.20;1.40;;;6.65;100.00;96240.75;647860;216;31932;-74
2022/04/16 05:38:38;;;;;;;1.40;1.10;;;5.40;1.40;;;6.97;100.00;96248.31;649136;216;31567;-73
2022/04/16 05:41:20;;;;;;;0.95;0.95;;;5.60;1.40;;;7.01;100.00;96247.80;619248;226;32470;-74
2022/04/16 05:44:08;;;;;;;1.50;1.20;;;5.70;1.40;;;7.28;100.00;96244.09;644927;216;42181;-74
2022/04/16 05:46:56;;;;;;;2.25;1.65;;;5.80;1.40;;;7.34;100.00;96248.26;646849;216;31497;-74
2022/04/16 05:49:37;;;;;;;2.25;1.27;;;6.00;1.40;;;7.31;100.00;96243.93;652127;212;31440;-74
2022/04/16 05:52:19;;;;;;;2.80;1.57;;;6.00;1.40;;;7.55;100.00;96247.01;619647;222;31893;-74
2022/04/16 05:55:01;;;;;;;1.60;1.00;;;6.00;1.40;;;7.69;100.00;96241.41;649368;216;31528;-75
2022/04/16 05:57:43;;;;;;;1.73;1.57;;;6.20;1.40;;;8.10;100.00;96252.64;649115;216;31584;-74
2022/04/16 06:00:24;;;;;;;3.05;1.67;;;6.50;1.40;;;8.38;100.00;96253.01;650247;216;31531;-72
2022/04/16 06:03:06;;;;;;;2.55;1.15;;;6.70;1.40;;;8.70;100.00;96245.22;650971;212;42700;-73
2022/04/16 06:05:48;;;;;;;3.17;1.40;;;6.90;1.40;;;8.86;100.00;96252.25;647814;212;32220;-74
2022/04/16 06:08:30;;;;;;;1.62;0.90;;;7.20;1.40;;;8.74;100.00;96252.76;639854;212;31704;-73
2022/04/16 06:11:17;;;;;;;2.70;1.63;;;7.20;1.40;;;8.30;100.00;96258.84;622678;222;32223;-73
2022/04/16 06:13:56;;;;;;;2.65;1.77;;;7.10;1.40;;;8.90;100.00;96255.11;648378;216;31787;-73
2022/04/16 06:16:38;;;;;;;1.27;1.20;;;7.10;1.40;;;9.11;100.00;96259.48;649219;212;31608;-74
2022/04/16 06:19:19;;;;;;;2.20;1.40;;;7.50;1.40;;;9.18;100.00;96259.84;645881;216;31557;-74
2022/04/16 06:22:05;;;;;;;2.22;1.48;;;7.50;1.40;;;9.30;100.00;96259.19;621729;222;32063;-74
2022/04/16 06:24:46;;;;;;;1.90;1.23;;;7.60;1.40;;;9.14;100.00;96256.39;648044;212;31510;-74
2022/04/16 06:27:31;;;;;;;1.90;1.70;;;7.60;1.40;;;9.28;100.00;96258.62;654800;212;30775;-74
2022/04/16 06:30:13;;;;;;;2.10;1.10;;;7.70;1.40;;;9.94;100.00;96255.38;650009;212;31602;-73
2022/04/16 06:32:55;;;;;;;1.63;1.50;;;8.20;1.40;;;10.18;100.00;96256.48;648865;216;31591;-74
2022/04/16 06:35:51;;;;;;;1.60;1.50;;;8.30;1.40;;;10.06;100.00;96263.02;619997;222;42509;-75
2022/04/16 06:38:33;;;;;;;2.15;1.70;;;8.20;1.40;;;9.81;100.00;96268.15;649015;212;31715;-75
2022/04/16 06:41:15;;;;;;;1.73;1.42;;;8.10;1.40;;;9.68;100.00;96266.48;648892;216;31507;-73
2022/04/16 06:43:57;;;;;;;2.00;1.10;;;8.00;1.40;;;9.67;100.00;96268.28;622933;222;31937;-74
2022/04/16 06:46:41;;;;;;;1.65;1.35;;;8.20;1.40;;;10.58;100.00;96269.16;647693;212;31482;-74
2022/04/16 06:49:24;;;;;;;4.10;1.67;;;8.40;1.40;;;9.92;100.00;96270.12;618348;226;32360;-74
2022/04/16 06:52:05;;;;;;;3.08;2.60;;;8.50;1.40;;;10.56;100.00;96269.06;618748;226;32177;-74
2022/04/16 06:54:47;;;;;;;1.90;1.50;;;8.80;1.40;;;10.61;100.00;96272.20;648235;212;31532;-75
2022/04/16 06:57:32;;;;;;;2.73;1.90;;;8.90;1.40;;;10.24;100.00;96270.42;650469;212;31683;-74
2022/04/16 07:00:15;;;;;;;2.87;1.90;;;8.70;1.40;;;11.11;100.00;96267.05;641567;220;31626;-74
2022/04/16 07:02:56;;;;;;;2.50;2.03;;;9.00;1.40;;;11.06;100.00;96271.55;649007;212;31535;-74
2022/04/16 07:05:38;;;;;;;3.10;1.30;;;9.00;1.40;;;10.79;100.00;96272.23;649087;216;31572;-74
2022/04/16 07:08:20;;;;;;;1.10;0.90;;;9.00;1.40;;;10.79;100.00;96276.84;641144;212;31703;-76
2022/04/16 07:11:01;;;;;;;2.90;1.40;;;9.00;1.40;;;10.99;100.00;96274.02;620488;225;42539;-74
2022/04/16 07:13:43;;;;;;;3.12;2.12;;;9.20;1.40;;;10.54;100.00;96280.15;643629;215;31547;-75
2022/04/16 07:16:25;;;;;;;3.97;1.80;;;9.10;1.40;;;10.85;100.00;96284.05;635718;222;42369;-74
2022/04/16 07:19:06;;;;;;;3.10;1.80;;;9.30;1.40;;;11.23;100.00;96282.69;651208;216;42523;-79
2022/04/16 07:21:50;;;;;;;2.77;2.03;;;9.60;1.40;;;11.62;100.00;96286.32;644599;216;31684;-74
2022/04/16 07:29:11;;;;;;;2.10;1.90;;;9.80;1.40;;;11.67;100.00;96293.53;646424;212;31562;-74
2022/04/16 07:31:53;;;;;;;1.60;1.30;;;9.60;1.40;;;11.69;100.00;96290.46;645451;212;42155;-74
2022/04/16 07:35:51;;;;;;;2.20;1.40;;;9.40;1.40;;;11.92;100.00;96296.23;645296;212;31596;-74
2022/04/16 07:38:35;;;;;;;3.27;1.80;;;9.30;1.40;;;10.53;100.00;96299.78;646558;216;31534;-76
2022/04/16 07:41:26;;;;;;;1.90;1.50;;;8.90;1.40;;;10.88;100.00;96302.96;646179;216;42178;-74
2022/04/16 07:46:55;;;;;;;2.22;1.60;;;9.20;1.40;;;10.54;100.00;96296.58;647010;216;31557;-74
2022/04/16 07:49:43;;;;;;;1.40;1.30;;;9.00;1.40;;;11.31;100.00;96295.36;641953;217;31550;-77
2022/04/16 07:52:31;;;;;;;1.93;1.73;;;9.50;1.40;;;11.83;100.00;96303.55;618478;226;43061;-74
2022/04/16 07:55:12;;;;;;;1.50;1.40;;;9.70;1.40;;;11.53;100.00;96300.65;644326;216;32155;-74
2022/04/16 07:58:00;;;;;;;1.75;1.65;;;9.60;1.40;;;10.72;100.00;96304.21;651714;213;31813;-76
2022/04/16 08:00:48;;;;;;;1.97;1.53;;;9.30;1.40;;;11.45;100.00;96306.80;649439;212;31682;-74
2022/04/16 08:03:30;;;;;;;1.58;1.48;;;9.60;1.40;;;12.03;100.00;96307.11;646780;216;31551;-74
2022/04/16 08:08:46;;;;;;;1.50;1.37;;;9.80;1.40;;;11.60;100.00;96310.13;642284;216;42651;-74
2022/04/16 08:11:34;;;;;;;1.43;1.33;;;9.50;1.40;;;11.20;100.00;96311.48;650683;216;31540;-74
2022/04/16 08:14:16;;;;;;;1.30;1.12;;;9.30;1.40;;;11.66;100.00;96311.25;616628;222;32592;-75
2022/04/16 08:17:03;;;;;;;1.50;1.35;;;9.40;1.40;;;11.98;100.00;96314.02;646941;212;42935;-78
2022/04/16 08:19:51;;;;;;;1.50;1.40;;;9.50;1.40;;;11.18;100.00;96315.86;644568;216;31560;-74
2022/04/16 08:22:34;;;;;;;1.58;1.17;;;9.40;1.40;;;11.64;100.00;96318.13;647373;212;31611;-74
2022/04/16 08:28:18;;;;;;;1.77;1.10;;;9.60;1.40;;;11.14;100.00;96325.97;646032;212;31657;-76
2022/04/16 08:31:00;;;;;;;1.40;1.00;;;9.50;1.40;;;11.67;100.00;96322.55;618942;222;31971;-77
2022/04/16 08:35:51;;;;;;;1.60;1.27;;;9.00;1.40;;;11.11;100.00;96330.88;646596;216;31597;-74
2022/04/16 08:38:33;;;;;;;1.20;1.10;;;9.20;1.40;;;11.23;100.00;96329.05;648924;216;31579;-74
2022/04/16 08:43:51;;;;;;;2.20;1.33;;;9.70;1.40;;;11.43;100.00;96329.37;648834;212;31558;-78
2022/04/16 08:46:39;;;;;;;1.27;0.93;;;9.40;1.40;;;11.33;100.00;96327.22;647758;212;31536;-74
2022/04/16 08:49:21;;;;;;;1.80;1.70;;;9.30;1.40;;;10.83;100.00;96336.53;645838;212;31547;-75
2022/04/16 08:52:08;;;;;;;1.33;1.23;;;9.00;1.40;;;10.43;100.00;96338.03;648508;216;31693;-74
2022/04/16 08:54:48;;;;;;;1.80;1.30;;;9.30;1.40;;;11.07;100.00;96337.43;646240;216;32676;-74
2022/04/16 09:00:17;;;;;;;2.17;1.60;;;9.80;1.40;;;11.21;100.00;96339.06;647593;212;31626;-74
2022/04/16 09:02:58;;;;;;;1.50;1.40;;;9.50;1.40;;;11.96;100.00;96337.75;644593;216;32963;-74
2022/04/16 09:05:40;;;;;;;2.50;1.60;;;9.80;1.40;;;12.39;100.00;96336.80;620529;222;32216;-74
2022/04/16 09:08:30;;;;;;;1.77;1.40;;;10.00;1.40;;;12.05;100.00;96336.39;642469;212;31824;-74
2022/04/16 09:11:11;;;;;;;2.65;1.80;;;9.80;1.40;;;11.46;100.00;96343.39;646451;212;31704;-74
2022/04/16 09:13:53;;;;;;;1.85;1.40;;;9.80;1.40;;;12.14;100.00;96342.22;621233;226;32053;-74
2022/04/16 09:16:38;;;;;;;1.27;1.10;;;10.20;1.40;;;12.45;100.00;96338.92;644645;216;31649;-74
2022/04/16 09:19:21;;;;;;;2.00;1.73;;;10.60;1.40;;;13.44;100.00;96339.98;647385;216;42261;-74
2022/04/16 09:22:01;;;;;;;1.62;1.15;;;11.30;1.40;;;13.07;100.00;96337.89;646938;216;31609;-74
2022/04/16 09:27:17;;;;;;;1.90;1.33;;;10.30;1.40;;;12.52;100.00;96337.71;647232;212;31549;-74
2022/04/16 09:30:05;;;;;;;3.70;1.93;;;9.80;1.40;;;11.05;100.00;96343.85;621265;226;31918;-75
2022/04/16 09:32:53;;;;;;;2.35;1.45;;;9.30;1.40;;;11.03;100.00;96345.55;646042;212;38758;-74
2022/04/16 09:35:57;;;;;;;1.70;1.10;;;9.20;1.40;;;10.69;100.00;96339.05;646694;216;31558;-75
2022/04/16 09:41:13;;;;;;;2.10;1.40;;;9.10;1.40;;;10.68;100.00;96340.91;645297;216;42215;-73
2022/04/16 09:43:58;;;;;;;1.97;1.13;;;9.00;1.40;;;10.47;100.00;96348.14;649374;216;42691;-77
2022/04/16 09:46:43;;;;;;;2.58;1.62;;;8.90;1.40;;;10.48;100.00;96354.80;648964;212;42004;-74
2022/04/16 09:49:23;;;;;;;1.23;1.13;;;8.80;1.40;;;10.29;100.00;96351.70;643699;216;31594;-74
2022/04/16 09:52:05;;;;;;;1.50;1.00;;;8.70;1.40;;;10.51;100.00;96351.04;649030;216;32589;-74
2022/04/16 09:54:47;;;;;;;1.60;1.20;;;8.90;1.40;;;10.40;100.00;96350.00;646614;212;31548;-74
2022/04/16 09:57:35;;;;;;;1.90;1.73;;;8.80;1.40;;;10.67;100.00;96353.02;618752;225;31847;-75
2022/04/16 10:00:17;;;;;;;3.10;1.63;;;8.80;1.40;;;10.43;100.00;96354.67;651093;216;31535;-76
2022/04/16 10:03:06;;;;;;;1.50;1.40;;;9.00;1.40;;;11.08;100.00;96352.84;646541;216;32148;-74
2022/04/16 10:06:15;;;;;;;1.87;1.35;;;9.60;1.40;;;11.42;100.00;96360.76;650423;216;31482;-74
2022/04/16 10:09:01;;;;;;;1.70;1.60;;;9.80;1.40;;;11.79;100.00;96358.69;648157;216;31835;-76
2022/04/16 10:17:35;;;;;;;2.30;1.50;;;10.30;1.40;;;11.83;100.00;96365.59;649406;216;31598;-76
2022/04/16 10:20:20;;;;;;;1.40;1.20;;;10.10;1.40;;;12.56;100.00;96366.27;647178;216;42180;-75
2022/04/16 10:23:03;;;;;;;2.37;0.90;;;10.40;1.40;;;12.71;100.00;96366.23;646385;216;42512;-75
2022/04/16 10:25:44;;;;;;;0.97;0.93;;;10.30;1.40;;;12.72;100.00;96367.63;646461;216;31815;-75
2022/04/16 10:28:33;;;;;;;1.05;0.95;;;10.10;1.40;;;12.33;100.00;96371.31;643467;216;31555;-76
2022/04/16 10:31:24;;;;;;;2.20;1.17;;;9.90;1.40;;;11.74;100.00;96374.38;646983;216;31617;-74
2022/04/16 10:35:59;;;;;;;2.92;1.60;;;10.00;1.40;;;11.16;100.00;96378.91;647653;216;31542;-75
2022/04/16 10:38:42;;;;;;;1.30;1.10;;;9.70;1.40;;;11.20;100.00;96378.38;647323;216;31921;-74
2022/04/16 10:41:23;;;;;;;1.70;1.10;;;9.50;1.40;;;10.67;100.00;96380.67;646962;216;31691;-74
2022/04/16 10:44:06;;;;;;;1.80;1.13;;;9.40;1.40;;;11.03;100.00;96381.05;647383;212;31515;-78
2022/04/16 10:46:50;;;;;;;1.27;1.10;;;9.40;1.40;;;10.38;100.00;96388.29;645421;216;42194;-75
2022/04/16 10:49:33;;;;;;;1.70;1.50;;;9.00;1.40;;;9.98;100.00;96392.91;618795;222;42637;-75
2022/04/16 10:52:20;;;;;;;1.07;0.97;;;8.70;1.40;;;10.34;100.00;96394.49;645484;216;42139;-74
2022/04/16 10:55:02;;;;;;;1.63;1.10;;;8.70;1.40;;;9.95;100.00;96396.76;645840;216;42134;-75
2022/04/16 10:57:43;;;;;;;1.20;1.00;;;8.70;1.40;;;10.08;100.00;96396.84;623552;226;31956;-75
2022/04/16 11:00:25;;;;;;;2.80;1.17;;;8.70;1.40;;;10.37;100.00;96396.48;650135;212;31535;-75
2022/04/16 11:03:09;;;;;;;1.40;1.30;;;8.70;1.40;;;10.34;100.00;96398.56;648423;212;31514;-74
2022/04/16 11:06:03;;;;;;;0.90;0.80;;;8.80;1.40;;;10.32;100.00;96403.50;644779;216;31494;-76
2022/04/16 11:08:46;;;;;;;1.52;1.25;;;8.90;1.40;;;10.34;100.00;96408.31;621839;222;32060;-76
2022/04/16 11:11:30;;;;;;;1.63;0.87;;;9.00;1.40;;;10.47;100.00;96400.36;647905;212;31572;-75
2022/04/16 11:14:18;;;;;;;2.30;1.50;;;9.20;1.40;;;10.78;100.00;96396.77;646289;212;32175;-77
2022/04/16 11:17:05;;;;;;;1.00;0.70;;;9.50;1.40;;;11.08;100.00;96391.97;647623;216;31573;-74
2022/04/16 11:20:03;;;;;;;1.37;1.10;;;9.50;1.40;;;11.09;100.00;96395.70;645663;216;31788;-76
2022/04/16 11:22:46;;;;;;;0.80;0.80;;;9.50;1.40;;;11.20;100.00;96392.05;646637;212;31533;-74
2022/04/16 11:34:14;;;;;;;0.98;0.88;;;9.30;1.40;;;11.30;100.00;96389.57;646691;212;42296;-75
2022/04/16 11:35:57;;;;;;;1.62;1.40;;;9.60;1.40;;;11.75;100.00;96394.41;647704;216;32009;-77
2022/04/16 11:41:13;;;;;;;2.90;1.60;;;9.70;1.40;;;11.99;100.00;96385.06;644785;216;31554;-74
2022/04/16 11:44:02;;;;;;;3.50;1.53;;;9.80;1.40;;;11.89;100.00;96392.44;645353;216;31526;-74
2022/04/16 11:46:49;;;;;;;1.30;0.90;;;9.90;1.40;;;11.83;100.00;96386.53;646718;216;31794;-76
2022/04/16 11:49:30;;;;;;;1.70;1.60;;;9.90;1.40;;;12.12;100.00;96384.77;648157;212;31562;-77
2022/04/16 11:52:24;;;;;;;1.70;1.20;;;10.10;1.40;;;12.19;100.00;96383.26;645353;212;31907;-74
2022/04/16 11:55:10;;;;;;;1.10;1.00;;;10.00;1.40;;;12.57;100.00;96384.09;615303;229;31882;-75
2022/04/16 11:57:53;;;;;;;2.30;1.27;;;10.20;1.40;;;12.86;100.00;96383.50;649750;216;37793;-74
2022/04/16 12:00:35;;;;;;;2.20;2.00;;;10.50;1.40;;;11.93;100.00;96383.62;645925;216;31525;-74
2022/04/16 12:03:23;;;;;;;1.10;0.97;;;10.20;1.40;;;11.77;100.00;96388.14;645950;216;43845;-77
2022/04/16 12:06:11;;;;;;;1.20;1.00;;;10.30;1.40;;;12.52;100.00;96381.34;647005;216;31601;-74
2022/04/16 12:08:58;;;;;;;2.83;1.90;;;10.90;1.40;;;12.83;100.00;96382.33;645728;216;31663;-76
2022/04/16 12:11:42;;;;;;;2.35;1.45;;;11.10;1.40;;;13.65;98.79;96384.57;647737;216;31576;-74
2022/04/16 12:14:24;;;;;;;1.67;1.27;;;11.40;1.40;;;13.80;97.30;96390.47;647499;216;32116;-74
2022/04/16 12:17:14;;;;;;;3.00;1.30;;;11.60;1.40;;;14.70;91.59;96385.88;646088;216;31510;-74
2022/04/16 12:20:04;;;;;;;1.25;1.10;;;11.90;1.40;;;14.29;88.26;96389.50;619492;222;32406;-76
2022/04/16 12:22:56;;;;;;;1.63;1.20;;;12.00;1.40;;;14.32;88.26;96391.64;648195;212;31588;-75
2022/04/16 12:25:44;;;;;;;1.90;0.90;;;12.10;1.40;;;14.93;87.50;96383.41;629576;222;32691;-75
2022/04/16 12:28:29;;;;;;;2.03;1.40;;;12.70;1.40;;;15.54;82.78;96382.02;649634;216;31609;-77
2022/04/16 12:31:09;;;;;;;1.35;1.00;;;13.20;1.40;;;14.69;80.38;96396.95;647040;216;41863;-78
2022/04/16 12:35:55;;;;;;;3.67;1.65;;;12.30;1.40;;;15.31;84.99;96394.09;616477;226;31898;-75
2022/04/16 12:38:33;;;;;;;2.10;1.70;;;12.60;1.40;;;16.45;81.52;96391.95;646342;216;31533;-74
2022/04/16 12:41:19;;;;;;;1.90;1.65;;;13.20;1.40;;;16.14;79.18;96396.02;646625;212;31568;-77
2022/04/16 12:43:59;;;;;;;2.22;1.30;;;12.80;1.40;;;17.40;80.94;96392.20;646412;216;32502;-76
2022/04/16 12:46:47;;;;;;;2.45;1.95;;;16.10;1.40;;;19.63;67.44;96385.80;642783;218;31767;-76
2022/04/16 12:49:35;;;;;;;2.05;1.73;;;16.30;1.40;;;21.01;64.79;96382.88;647393;216;42200;-78
2022/04/16 12:52:17;;;;;;;2.90;1.70;;;18.20;1.40;;;22.35;54.34;96381.69;649995;212;31562;-77